sensor_id;sensor_type;location;lat;lon;timestamp;P1;durP1;ratioP1;P2;durP2;ratioP2
12798;SDS011;19250;42.646;26.980;2022-10-22T12:47:47;9.10;;;6.75;;
12798;SDS011;19250;42.646;26.980;2022-10-22T12:50:18;7.35;;;6.57;;
12798;SDS011;19250;42.646;26.980;2022-10-22T12:52:48;8.27;;;5.85;;
12798;SDS011;19250;42.646;26.980;2022-10-22T12:55:16;9.10;;;6.30;;
12798;SDS011;19250;42.646;26.980;2022-10-22T12:57:45;7.05;;;5.60;;
12798;SDS011;19250;42.646;26.980;2022-10-22T13:00:20;8.93;;;6.85;;
12798;SDS011;19250;42.646;26.980;2022-10-22T13:02:51;10.20;;;7.25;;
12798;SDS011;19250;42.646;26.980;2022-10-22T13:05:22;9.73;;;6.43;;
12798;SDS011;19250;42.646;26.980;2022-10-22T13:07:52;6.97;;;5.38;;
12798;SDS011;19250;42.646;26.980;2022-10-22T13:10:24;9.30;;;6.63;;
12798;SDS011;19250;42.646;26.980;2022-10-22T13:12:56;8.98;;;5.85;;
12798;SDS011;19250;42.646;26.980;2022-10-22T13:15:34;6.97;;;5.40;;
12798;SDS011;19250;42.646;26.980;2022-10-22T13:18:12;8.30;;;5.45;;
12798;SDS011;19250;42.646;26.980;2022-10-22T13:20:54;8.85;;;6.35;;
12798;SDS011;19250;42.646;26.980;2022-10-22T13:23:23;8.45;;;5.15;;
12798;SDS011;19250;42.646;26.980;2022-10-22T13:25:55;6.90;;;5.28;;
12798;SDS011;19250;42.646;26.980;2022-10-22T13:28:25;7.38;;;5.25;;
12798;SDS011;19250;42.646;26.980;2022-10-22T13:30:54;9.23;;;5.60;;
12798;SDS011;19250;42.646;26.980;2022-10-22T13:33:25;12.48;;;5.57;;
12798;SDS011;19250;42.646;26.980;2022-10-22T13:35:55;7.75;;;6.28;;
12798;SDS011;19250;42.646;26.980;2022-10-22T13:38:23;9.80;;;7.88;;
12798;SDS011;19250;42.646;26.980;2022-10-22T13:40:51;11.47;;;8.63;;
12798;SDS011;19250;42.646;26.980;2022-10-22T13:43:18;15.15;;;13.60;;
12798;SDS011;19250;42.646;26.980;2022-10-22T13:45:46;47.83;;;43.53;;
12798;SDS011;19250;42.646;26.980;2022-10-22T13:48:17;20.75;;;18.88;;
12798;SDS011;19250;42.646;26.980;2022-10-22T13:50:48;9.03;;;6.80;;
12798;SDS011;19250;42.646;26.980;2022-10-22T13:53:16;12.10;;;5.85;;
12798;SDS011;19250;42.646;26.980;2022-10-22T13:55:46;8.70;;;6.28;;
12798;SDS011;19250;42.646;26.980;2022-10-22T13:58:15;7.30;;;4.47;;
12798;SDS011;19250;42.646;26.980;2022-10-22T14:00:44;5.80;;;4.70;;
12798;SDS011;19250;42.646;26.980;2022-10-22T14:03:15;7.40;;;5.20;;
12798;SDS011;19250;42.646;26.980;2022-10-22T14:05:45;6.85;;;4.90;;
12798;SDS011;19250;42.646;26.980;2022-10-22T14:08:15;6.72;;;5.88;;
12798;SDS011;19250;42.646;26.980;2022-10-22T14:10:44;10.07;;;6.53;;
12798;SDS011;19250;42.646;26.980;2022-10-22T14:13:12;6.68;;;4.90;;
12798;SDS011;19250;42.646;26.980;2022-10-22T14:15:41;10.75;;;6.97;;
12798;SDS011;19250;42.646;26.980;2022-10-22T14:18:11;9.52;;;7.30;;
12798;SDS011;19250;42.646;26.980;2022-10-22T14:20:48;9.27;;;7.60;;
12798;SDS011;19250;42.646;26.980;2022-10-22T14:23:19;11.30;;;8.13;;
12798;SDS011;19250;42.646;26.980;2022-10-22T14:25:48;13.57;;;8.13;;
12798;SDS011;19250;42.646;26.980;2022-10-22T14:28:16;27.05;;;20.70;;
12798;SDS011;19250;42.646;26.980;2022-10-22T14:30:44;21.52;;;15.45;;
12798;SDS011;19250;42.646;26.980;2022-10-22T14:33:12;31.08;;;25.40;;
12798;SDS011;19250;42.646;26.980;2022-10-22T14:35:42;20.35;;;18.33;;
12798;SDS011;19250;42.646;26.980;2022-10-22T14:38:10;12.63;;;8.25;;
12798;SDS011;19250;42.646;26.980;2022-10-22T14:40:39;10.85;;;7.13;;
12798;SDS011;19250;42.646;26.980;2022-10-22T14:43:09;11.02;;;8.88;;
12798;SDS011;19250;42.646;26.980;2022-10-22T14:45:36;14.98;;;8.90;;
12798;SDS011;19250;42.646;26.980;2022-10-22T14:48:04;14.93;;;8.50;;
12798;SDS011;19250;42.646;26.980;2022-10-22T14:50:33;13.95;;;7.80;;
12798;SDS011;19250;42.646;26.980;2022-10-22T14:53:00;9.93;;;7.55;;
12798;SDS011;19250;42.646;26.980;2022-10-22T14:55:28;8.85;;;7.40;;
12798;SDS011;19250;42.646;26.980;2022-10-22T14:57:56;10.10;;;6.75;;
12798;SDS011;19250;42.646;26.980;2022-10-22T15:00:23;15.27;;;7.15;;
12798;SDS011;19250;42.646;26.980;2022-10-22T15:02:51;12.43;;;11.05;;
12798;SDS011;19250;42.646;26.980;2022-10-22T15:05:20;23.42;;;19.95;;
12798;SDS011;19250;42.646;26.980;2022-10-22T15:07:48;24.65;;;21.77;;
12798;SDS011;19250;42.646;26.980;2022-10-22T15:10:16;25.40;;;20.40;;
12798;SDS011;19250;42.646;26.980;2022-10-22T15:12:43;32.20;;;23.35;;
12798;SDS011;19250;42.646;26.980;2022-10-22T15:15:12;36.78;;;26.00;;
12798;SDS011;19250;42.646;26.980;2022-10-22T15:17:39;34.13;;;26.65;;
12798;SDS011;19250;42.646;26.980;2022-10-22T15:20:06;30.90;;;23.90;;
12798;SDS011;19250;42.646;26.980;2022-10-22T15:22:34;30.70;;;23.33;;
12798;SDS011;19250;42.646;26.980;2022-10-22T15:25:02;32.42;;;23.95;;
12798;SDS011;19250;42.646;26.980;2022-10-22T15:27:32;28.95;;;21.75;;
12798;SDS011;19250;42.646;26.980;2022-10-22T15:30:00;26.92;;;19.40;;
12798;SDS011;19250;42.646;26.980;2022-10-22T15:32:28;19.45;;;13.82;;
12798;SDS011;19250;42.646;26.980;2022-10-22T15:34:57;21.05;;;14.85;;
12798;SDS011;19250;42.646;26.980;2022-10-22T15:37:25;19.50;;;12.47;;
12798;SDS011;19250;42.646;26.980;2022-10-22T15:39:52;22.33;;;16.95;;
12798;SDS011;19250;42.646;26.980;2022-10-22T15:42:20;23.65;;;17.17;;
12798;SDS011;19250;42.646;26.980;2022-10-22T15:44:47;29.70;;;20.88;;
12798;SDS011;19250;42.646;26.980;2022-10-22T15:47:14;25.27;;;19.10;;
12798;SDS011;19250;42.646;26.980;2022-10-22T15:49:43;47.47;;;34.85;;
12798;SDS011;19250;42.646;26.980;2022-10-22T15:52:10;38.20;;;30.57;;
12798;SDS011;19250;42.646;26.980;2022-10-22T15:54:38;33.95;;;26.23;;
12798;SDS011;19250;42.646;26.980;2022-10-22T15:57:08;34.00;;;24.80;;
12798;SDS011;19250;42.646;26.980;2022-10-22T15:59:35;27.38;;;21.02;;
12798;SDS011;19250;42.646;26.980;2022-10-22T16:02:02;29.08;;;22.60;;
12798;SDS011;19250;42.646;26.980;2022-10-22T16:04:31;28.63;;;22.33;;
12798;SDS011;19250;42.646;26.980;2022-10-22T16:07:00;24.00;;;19.42;;
12798;SDS011;19250;42.646;26.980;2022-10-22T16:09:27;19.75;;;17.55;;
12798;SDS011;19250;42.646;26.980;2022-10-22T16:11:55;23.70;;;19.42;;
12798;SDS011;19250;42.646;26.980;2022-10-22T16:14:22;24.13;;;20.40;;
12798;SDS011;19250;42.646;26.980;2022-10-22T16:16:50;30.90;;;24.60;;
12798;SDS011;19250;42.646;26.980;2022-10-22T16:19:20;29.02;;;23.23;;
12798;SDS011;19250;42.646;26.980;2022-10-22T16:21:49;25.43;;;19.30;;
12798;SDS011;19250;42.646;26.980;2022-10-22T16:24:19;33.33;;;25.48;;
12798;SDS011;19250;42.646;26.980;2022-10-22T16:26:47;34.40;;;26.38;;
12798;SDS011;19250;42.646;26.980;2022-10-22T16:29:15;38.80;;;27.40;;
12798;SDS011;19250;42.646;26.980;2022-10-22T16:31:42;31.17;;;23.02;;
12798;SDS011;19250;42.646;26.980;2022-10-22T16:36:40;19.88;;;16.60;;
12798;SDS011;19250;42.646;26.980;2022-10-22T16:39:08;24.23;;;18.00;;
12798;SDS011;19250;42.646;26.980;2022-10-22T16:41:38;17.77;;;14.32;;
12798;SDS011;19250;42.646;26.980;2022-10-22T16:44:05;17.55;;;14.20;;
12798;SDS011;19250;42.646;26.980;2022-10-22T16:46:33;17.52;;;14.05;;
12798;SDS011;19250;42.646;26.980;2022-10-22T16:49:02;17.60;;;13.32;;
12798;SDS011;19250;42.646;26.980;2022-10-22T16:51:30;17.98;;;16.08;;
12798;SDS011;19250;42.646;26.980;2022-10-22T16:53:58;20.30;;;16.02;;
12798;SDS011;19250;42.646;26.980;2022-10-22T16:56:25;21.75;;;18.60;;
12798;SDS011;19250;42.646;26.980;2022-10-22T16:58:54;24.53;;;20.70;;
12798;SDS011;19250;42.646;26.980;2022-10-22T17:01:24;32.50;;;26.65;;
12798;SDS011;19250;42.646;26.980;2022-10-22T17:03:53;31.10;;;26.30;;
12798;SDS011;19250;42.646;26.980;2022-10-22T17:06:20;29.73;;;24.42;;
12798;SDS011;19250;42.646;26.980;2022-10-22T17:08:49;31.40;;;26.90;;
12798;SDS011;19250;42.646;26.980;2022-10-22T17:11:17;23.67;;;19.75;;
12798;SDS011;19250;42.646;26.980;2022-10-22T17:13:46;16.25;;;12.63;;
12798;SDS011;19250;42.646;26.980;2022-10-22T17:16:17;17.45;;;12.80;;
12798;SDS011;19250;42.646;26.980;2022-10-22T17:18:46;16.92;;;11.95;;
12798;SDS011;19250;42.646;26.980;2022-10-22T17:21:14;15.88;;;12.80;;
12798;SDS011;19250;42.646;26.980;2022-10-22T17:23:42;18.80;;;14.25;;
12798;SDS011;19250;42.646;26.980;2022-10-22T17:26:12;24.83;;;18.63;;
12798;SDS011;19250;42.646;26.980;2022-10-22T17:28:42;23.73;;;19.13;;
12798;SDS011;19250;42.646;26.980;2022-10-22T17:31:10;27.48;;;20.10;;
12798;SDS011;19250;42.646;26.980;2022-10-22T17:33:43;22.77;;;19.58;;
12798;SDS011;19250;42.646;26.980;2022-10-22T17:36:11;30.40;;;22.13;;
12798;SDS011;19250;42.646;26.980;2022-10-22T17:38:39;27.33;;;22.55;;
12798;SDS011;19250;42.646;26.980;2022-10-22T17:41:08;28.63;;;22.00;;
12798;SDS011;19250;42.646;26.980;2022-10-22T17:43:41;26.92;;;22.27;;
12798;SDS011;19250;42.646;26.980;2022-10-22T17:46:10;25.80;;;20.08;;
12798;SDS011;19250;42.646;26.980;2022-10-22T17:48:41;26.42;;;20.20;;
12798;SDS011;19250;42.646;26.980;2022-10-22T17:51:13;27.37;;;21.60;;
12798;SDS011;19250;42.646;26.980;2022-10-22T17:53:43;29.65;;;22.20;;
12798;SDS011;19250;42.646;26.980;2022-10-22T17:56:11;28.02;;;22.70;;
12798;SDS011;19250;42.646;26.980;2022-10-22T17:58:40;33.60;;;24.17;;
12798;SDS011;19250;42.646;26.980;2022-10-22T18:01:14;32.45;;;24.58;;
12798;SDS011;19250;42.646;26.980;2022-10-22T18:03:43;34.03;;;26.80;;
12798;SDS011;19250;42.646;26.980;2022-10-22T18:06:11;33.70;;;26.10;;
12798;SDS011;19250;42.646;26.980;2022-10-22T18:08:39;36.17;;;27.23;;
12798;SDS011;19250;42.646;26.980;2022-10-22T18:11:06;38.13;;;27.25;;
12798;SDS011;19250;42.646;26.980;2022-10-22T18:13:33;39.25;;;29.00;;
12798;SDS011;19250;42.646;26.980;2022-10-22T18:16:01;52.83;;;32.20;;
12798;SDS011;19250;42.646;26.980;2022-10-22T18:18:29;39.78;;;28.13;;
12798;SDS011;19250;42.646;26.980;2022-10-22T18:20:58;44.58;;;29.05;;
12798;SDS011;19250;42.646;26.980;2022-10-22T18:23:26;42.42;;;29.67;;
12798;SDS011;19250;42.646;26.980;2022-10-22T18:25:53;50.88;;;33.78;;
12798;SDS011;19250;42.646;26.980;2022-10-22T18:28:21;37.42;;;27.30;;
12798;SDS011;19250;42.646;26.980;2022-10-22T18:30:48;39.13;;;29.65;;
12798;SDS011;19250;42.646;26.980;2022-10-22T18:33:17;38.28;;;28.48;;
12798;SDS011;19250;42.646;26.980;2022-10-22T18:35:48;41.72;;;29.27;;
12798;SDS011;19250;42.646;26.980;2022-10-22T18:38:17;35.55;;;26.77;;
12798;SDS011;19250;42.646;26.980;2022-10-22T18:40:47;34.45;;;26.20;;
12798;SDS011;19250;42.646;26.980;2022-10-22T18:43:15;33.22;;;24.92;;
12798;SDS011;19250;42.646;26.980;2022-10-22T18:45:43;32.72;;;24.30;;
12798;SDS011;19250;42.646;26.980;2022-10-22T18:48:12;30.80;;;24.05;;
12798;SDS011;19250;42.646;26.980;2022-10-22T18:50:40;37.22;;;24.27;;
12798;SDS011;19250;42.646;26.980;2022-10-22T18:53:08;29.08;;;23.90;;
12798;SDS011;19250;42.646;26.980;2022-10-22T18:55:38;32.67;;;24.88;;
12798;SDS011;19250;42.646;26.980;2022-10-22T18:58:05;31.80;;;24.17;;
12798;SDS011;19250;42.646;26.980;2022-10-22T19:00:33;31.70;;;24.60;;
12798;SDS011;19250;42.646;26.980;2022-10-22T19:03:01;32.30;;;24.42;;
12798;SDS011;19250;42.646;26.980;2022-10-22T19:05:28;29.90;;;23.83;;
12798;SDS011;19250;42.646;26.980;2022-10-22T19:07:56;33.15;;;24.17;;
12798;SDS011;19250;42.646;26.980;2022-10-22T19:10:23;36.58;;;25.08;;
12798;SDS011;19250;42.646;26.980;2022-10-22T19:12:52;31.53;;;24.23;;
12798;SDS011;19250;42.646;26.980;2022-10-22T19:15:19;32.10;;;23.70;;
12798;SDS011;19250;42.646;26.980;2022-10-22T19:17:46;31.30;;;22.52;;
12798;SDS011;19250;42.646;26.980;2022-10-22T19:20:14;34.37;;;22.97;;
12798;SDS011;19250;42.646;26.980;2022-10-22T19:22:41;30.00;;;22.88;;
12798;SDS011;19250;42.646;26.980;2022-10-22T19:25:08;31.40;;;23.58;;
12798;SDS011;19250;42.646;26.980;2022-10-22T19:27:35;30.58;;;23.98;;
12798;SDS011;19250;42.646;26.980;2022-10-22T19:30:05;31.08;;;23.92;;
12798;SDS011;19250;42.646;26.980;2022-10-22T19:32:33;29.98;;;24.42;;
12798;SDS011;19250;42.646;26.980;2022-10-22T19:35:01;36.08;;;26.45;;
12798;SDS011;19250;42.646;26.980;2022-10-22T19:37:28;38.03;;;26.63;;
12798;SDS011;19250;42.646;26.980;2022-10-22T19:39:55;35.72;;;26.17;;
12798;SDS011;19250;42.646;26.980;2022-10-22T19:42:23;36.33;;;27.98;;
12798;SDS011;19250;42.646;26.980;2022-10-22T19:44:50;37.35;;;27.05;;
12798;SDS011;19250;42.646;26.980;2022-10-22T19:47:19;36.43;;;26.67;;
12798;SDS011;19250;42.646;26.980;2022-10-22T19:49:49;35.30;;;27.57;;
12798;SDS011;19250;42.646;26.980;2022-10-22T19:52:17;33.88;;;26.55;;
12798;SDS011;19250;42.646;26.980;2022-10-22T19:54:44;37.08;;;26.75;;
12798;SDS011;19250;42.646;26.980;2022-10-22T19:57:12;34.42;;;25.95;;
12798;SDS011;19250;42.646;26.980;2022-10-22T19:59:41;35.63;;;26.60;;
12798;SDS011;19250;42.646;26.980;2022-10-22T20:02:09;35.67;;;26.40;;
12798;SDS011;19250;42.646;26.980;2022-10-22T20:04:40;31.65;;;25.90;;
12798;SDS011;19250;42.646;26.980;2022-10-22T20:07:07;35.47;;;26.20;;
12798;SDS011;19250;42.646;26.980;2022-10-22T20:09:34;33.97;;;25.63;;
12798;SDS011;19250;42.646;26.980;2022-10-22T20:12:02;31.67;;;24.20;;
12798;SDS011;19250;42.646;26.980;2022-10-22T20:14:29;32.67;;;25.07;;
12798;SDS011;19250;42.646;26.980;2022-10-22T20:16:56;31.77;;;23.95;;
12798;SDS011;19250;42.646;26.980;2022-10-22T20:19:24;33.65;;;24.60;;
12798;SDS011;19250;42.646;26.980;2022-10-22T20:21:54;35.58;;;25.80;;
12798;SDS011;19250;42.646;26.980;2022-10-22T20:24:22;33.13;;;25.25;;
12798;SDS011;19250;42.646;26.980;2022-10-22T20:26:49;31.83;;;24.02;;
12798;SDS011;19250;42.646;26.980;2022-10-22T20:29:17;29.50;;;22.70;;
12798;SDS011;19250;42.646;26.980;2022-10-22T20:31:44;32.25;;;23.30;;
12798;SDS011;19250;42.646;26.980;2022-10-22T20:34:12;33.92;;;22.73;;
12798;SDS011;19250;42.646;26.980;2022-10-22T20:36:40;29.77;;;22.77;;
12798;SDS011;19250;42.646;26.980;2022-10-22T20:39:10;29.75;;;21.92;;
12798;SDS011;19250;42.646;26.980;2022-10-22T20:41:41;29.40;;;22.52;;
12798;SDS011;19250;42.646;26.980;2022-10-22T20:44:10;27.23;;;21.58;;
12798;SDS011;19250;42.646;26.980;2022-10-22T20:46:40;29.00;;;22.52;;
12798;SDS011;19250;42.646;26.980;2022-10-22T20:49:08;33.88;;;22.90;;
12798;SDS011;19250;42.646;26.980;2022-10-22T20:51:36;30.20;;;23.87;;
12798;SDS011;19250;42.646;26.980;2022-10-22T20:54:04;31.13;;;24.02;;
12798;SDS011;19250;42.646;26.980;2022-10-22T20:56:34;32.33;;;24.85;;
12798;SDS011;19250;42.646;26.980;2022-10-22T20:59:03;33.33;;;23.65;;
12798;SDS011;19250;42.646;26.980;2022-10-22T21:01:34;35.35;;;24.60;;
12798;SDS011;19250;42.646;26.980;2022-10-22T21:04:03;32.22;;;24.77;;
12798;SDS011;19250;42.646;26.980;2022-10-22T21:06:31;35.07;;;24.97;;
12798;SDS011;19250;42.646;26.980;2022-10-22T21:09:02;31.70;;;25.35;;
12798;SDS011;19250;42.646;26.980;2022-10-22T21:11:31;32.67;;;24.48;;
12798;SDS011;19250;42.646;26.980;2022-10-22T21:14:00;36.80;;;26.80;;
12798;SDS011;19250;42.646;26.980;2022-10-22T21:16:27;34.38;;;25.20;;
12798;SDS011;19250;42.646;26.980;2022-10-22T21:18:55;32.83;;;24.67;;
12798;SDS011;19250;42.646;26.980;2022-10-22T21:21:22;31.95;;;25.13;;
12798;SDS011;19250;42.646;26.980;2022-10-22T21:23:50;33.28;;;24.42;;
12798;SDS011;19250;42.646;26.980;2022-10-22T21:26:17;33.77;;;25.17;;
12798;SDS011;19250;42.646;26.980;2022-10-22T21:28:45;30.45;;;24.58;;
12798;SDS011;19250;42.646;26.980;2022-10-22T21:31:14;31.48;;;24.65;;
12798;SDS011;19250;42.646;26.980;2022-10-22T21:33:46;34.88;;;25.67;;
12798;SDS011;19250;42.646;26.980;2022-10-22T21:36:14;34.20;;;25.52;;
12798;SDS011;19250;42.646;26.980;2022-10-22T21:38:41;35.35;;;25.90;;
12798;SDS011;19250;42.646;26.980;2022-10-22T21:41:10;38.15;;;26.20;;
12798;SDS011;19250;42.646;26.980;2022-10-22T21:43:39;36.38;;;25.88;;
12798;SDS011;19250;42.646;26.980;2022-10-22T21:46:08;32.80;;;26.27;;
12798;SDS011;19250;42.646;26.980;2022-10-22T21:48:39;36.13;;;26.58;;
12798;SDS011;19250;42.646;26.980;2022-10-22T21:51:07;35.15;;;26.73;;
12798;SDS011;19250;42.646;26.980;2022-10-22T21:53:35;37.40;;;26.60;;
12798;SDS011;19250;42.646;26.980;2022-10-22T21:56:03;35.78;;;26.92;;
12798;SDS011;19250;42.646;26.980;2022-10-22T21:58:32;36.22;;;27.17;;
12798;SDS011;19250;42.646;26.980;2022-10-22T22:01:00;35.92;;;26.52;;
12798;SDS011;19250;42.646;26.980;2022-10-22T22:03:27;33.63;;;25.42;;
12798;SDS011;19250;42.646;26.980;2022-10-22T22:05:59;33.53;;;24.63;;
12798;SDS011;19250;42.646;26.980;2022-10-22T22:08:28;32.70;;;24.70;;
12798;SDS011;19250;42.646;26.980;2022-10-22T22:10:59;34.10;;;24.38;;
12798;SDS011;19250;42.646;26.980;2022-10-22T22:13:27;33.15;;;24.92;;
12798;SDS011;19250;42.646;26.980;2022-10-22T22:15:58;34.93;;;25.40;;
12798;SDS011;19250;42.646;26.980;2022-10-22T22:18:26;32.13;;;24.98;;
12798;SDS011;19250;42.646;26.980;2022-10-22T22:20:54;32.00;;;24.67;;
12798;SDS011;19250;42.646;26.980;2022-10-22T22:23:22;31.75;;;24.20;;
12798;SDS011;19250;42.646;26.980;2022-10-22T22:25:50;30.20;;;23.45;;
12798;SDS011;19250;42.646;26.980;2022-10-22T22:28:18;34.00;;;25.08;;
12798;SDS011;19250;42.646;26.980;2022-10-22T22:30:45;33.90;;;24.83;;
12798;SDS011;19250;42.646;26.980;2022-10-22T22:33:12;29.00;;;23.90;;
12798;SDS011;19250;42.646;26.980;2022-10-22T22:35:39;36.00;;;24.55;;
12798;SDS011;19250;42.646;26.980;2022-10-22T22:38:07;33.17;;;23.70;;
12798;SDS011;19250;42.646;26.980;2022-10-22T22:40:37;31.50;;;24.30;;
12798;SDS011;19250;42.646;26.980;2022-10-22T22:43:05;33.05;;;26.42;;
12798;SDS011;19250;42.646;26.980;2022-10-22T22:45:33;35.15;;;26.42;;
12798;SDS011;19250;42.646;26.980;2022-10-22T22:48:00;33.13;;;25.38;;
12798;SDS011;19250;42.646;26.980;2022-10-22T22:50:27;34.03;;;25.08;;
12798;SDS011;19250;42.646;26.980;2022-10-22T22:52:55;33.10;;;25.13;;
12798;SDS011;19250;42.646;26.980;2022-10-22T22:55:22;34.13;;;26.00;;
12798;SDS011;19250;42.646;26.980;2022-10-22T22:57:52;37.40;;;26.23;;
12798;SDS011;19250;42.646;26.980;2022-10-22T23:00:19;36.55;;;25.70;;
12798;SDS011;19250;42.646;26.980;2022-10-22T23:02:47;31.85;;;25.15;;
12798;SDS011;19250;42.646;26.980;2022-10-22T23:05:14;35.35;;;25.33;;
12798;SDS011;19250;42.646;26.980;2022-10-22T23:07:41;32.37;;;24.70;;
12798;SDS011;19250;42.646;26.980;2022-10-22T23:10:08;31.08;;;23.73;;
12798;SDS011;19250;42.646;26.980;2022-10-22T23:12:36;29.35;;;21.88;;
12798;SDS011;19250;42.646;26.980;2022-10-22T23:15:05;30.50;;;23.55;;
12798;SDS011;19250;42.646;26.980;2022-10-22T23:17:33;32.88;;;22.90;;
12798;SDS011;19250;42.646;26.980;2022-10-22T23:20:00;30.52;;;23.23;;
12798;SDS011;19250;42.646;26.980;2022-10-22T23:22:27;32.85;;;24.75;;
12798;SDS011;19250;42.646;26.980;2022-10-22T23:24:54;32.65;;;23.38;;
12798;SDS011;19250;42.646;26.980;2022-10-22T23:27:22;32.58;;;23.52;;
12798;SDS011;19250;42.646;26.980;2022-10-22T23:29:49;29.98;;;22.95;;
12798;SDS011;19250;42.646;26.980;2022-10-22T23:32:18;28.87;;;21.83;;
12798;SDS011;19250;42.646;26.980;2022-10-22T23:34:45;26.73;;;21.70;;
12798;SDS011;19250;42.646;26.980;2022-10-22T23:37:12;28.02;;;21.42;;
12798;SDS011;19250;42.646;26.980;2022-10-22T23:39:40;30.63;;;22.08;;
12798;SDS011;19250;42.646;26.980;2022-10-22T23:42:07;28.58;;;21.23;;
12798;SDS011;19250;42.646;26.980;2022-10-22T23:44:34;27.70;;;20.98;;
12798;SDS011;19250;42.646;26.980;2022-10-22T23:47:01;25.42;;;20.65;;
12798;SDS011;19250;42.646;26.980;2022-10-22T23:49:30;29.17;;;20.97;;
12798;SDS011;19250;42.646;26.980;2022-10-22T23:51:57;23.77;;;19.42;;
12798;SDS011;19250;42.646;26.980;2022-10-22T23:54:25;26.57;;;20.57;;
12798;SDS011;19250;42.646;26.980;2022-10-22T23:56:52;27.88;;;20.63;;
12798;SDS011;19250;42.646;26.980;2022-10-22T23:59:19;27.52;;;20.30;;
